createdAt,value
2023-03-10T00:00:01.882Z,94246.84
2023-03-10T00:02:32.970Z,94244.97
2023-03-10T00:04:59.613Z,94239.69
2023-03-10T00:07:29.248Z,94236.28
2023-03-10T00:09:58.350Z,94246.03
2023-03-10T00:12:27.918Z,94252.91
2023-03-10T00:14:56.415Z,94247.63
2023-03-10T00:17:26.000Z,94252.91
2023-03-10T00:19:56.146Z,94257.41
2023-03-10T00:22:25.058Z,94263.47
2023-03-10T00:24:55.761Z,94258.19
2023-03-10T00:27:22.373Z,94259.22
2023-03-10T00:29:51.631Z,94247.63
2023-03-10T00:32:18.747Z,94256.59
2023-03-10T00:34:50.738Z,94249.47
2023-03-10T00:37:19.626Z,94251.31
2023-03-10T00:39:50.231Z,94246.03
2023-03-10T00:42:22.234Z,94237.06
2023-03-10T00:44:48.978Z,94238.09
2023-03-10T00:47:15.768Z,94240.75
2023-03-10T00:49:42.477Z,94237.06
2023-03-10T00:52:09.206Z,94237.06
2023-03-10T00:54:41.147Z,94237.06
2023-03-10T00:57:08.612Z,94231.78
2023-03-10T00:59:50.096Z,94219.59
2023-03-10T01:02:19.032Z,94237.28
2023-03-10T01:04:46.335Z,94235.44
2023-03-10T01:07:15.307Z,94236.50
2023-03-10T01:09:41.941Z,94239.91
2023-03-10T01:12:10.252Z,94237.53
2023-03-10T01:14:39.071Z,94246.03
2023-03-10T01:17:10.523Z,94244.41
2023-03-10T01:19:38.737Z,94235.44
2023-03-10T01:22:08.492Z,94225.69
2023-03-10T01:24:35.195Z,94224.06
2023-03-10T01:27:04.159Z,94223.28
2023-03-10T01:29:30.887Z,94224.88
2023-03-10T01:31:59.759Z,94229.13
2023-03-10T01:34:29.389Z,94219.59
2023-03-10T01:36:58.405Z,94224.88
2023-03-10T01:39:27.472Z,94224.88
2023-03-10T01:41:54.134Z,94230.16
2023-03-10T01:44:21.090Z,94235.44
2023-03-10T01:46:51.862Z,94237.06
2023-03-10T01:49:20.363Z,94241.78
2023-03-10T01:51:58.201Z,94247.63
2023-03-10T01:54:29.480Z,94241.56
2023-03-10T01:56:56.014Z,94247.63
2023-03-10T01:59:25.033Z,94238.91
2023-03-10T02:01:51.840Z,94244.41
2023-03-10T02:04:27.327Z,94234.63
2023-03-10T02:06:54.138Z,94241.78
2023-03-10T02:09:21.493Z,94246.03
2023-03-10T02:11:48.438Z,94235.44
2023-03-10T02:14:15.107Z,94242.56
2023-03-10T02:16:41.869Z,94240.75
2023-03-10T02:19:12.617Z,94236.50
2023-03-10T02:21:49.742Z,94249.69
2023-03-10T02:24:30.738Z,94237.28
2023-03-10T02:27:05.721Z,94240.16
2023-03-10T02:29:38.417Z,94238.31
2023-03-10T02:32:11.621Z,94241.78
2023-03-10T02:34:41.178Z,94244.41
2023-03-10T02:37:07.873Z,94236.50
2023-03-10T02:39:34.571Z,94233.84
2023-03-10T02:42:04.321Z,94235.44
2023-03-10T02:44:33.740Z,94233.84
2023-03-10T02:47:00.422Z,94235.94
2023-03-10T02:49:31.838Z,94233.03
2023-03-10T02:52:00.778Z,94244.41
2023-03-10T02:54:27.482Z,94244.41
2023-03-10T02:56:54.178Z,94237.53
2023-03-10T02:59:20.896Z,94231.22
2023-03-10T03:01:49.714Z,94236.72
2023-03-10T03:04:16.566Z,94239.13
2023-03-10T03:06:45.511Z,94244.41
2023-03-10T03:09:12.183Z,94242.81
2023-03-10T03:11:41.223Z,94239.13
2023-03-10T03:14:10.418Z,94239.13
2023-03-10T03:16:37.190Z,94235.94
2023-03-10T03:19:09.050Z,94231.22
2023-03-10T03:21:35.683Z,94237.53
2023-03-10T03:24:05.173Z,94233.84
2023-03-10T03:26:32.524Z,94229.59
2023-03-10T03:29:02.024Z,94226.16
2023-03-10T03:31:28.703Z,94226.16
2023-03-10T03:34:00.123Z,94225.34
2023-03-10T03:36:28.899Z,94225.34
2023-03-10T03:38:57.724Z,94220.88
2023-03-10T03:41:26.592Z,94211.13
2023-03-10T03:43:56.791Z,94224.31
2023-03-10T03:46:26.188Z,94226.97
2023-03-10T03:48:55.388Z,94220.06
2023-03-10T03:51:24.288Z,94230.66
2023-03-10T03:53:54.037Z,94236.72
2023-03-10T03:56:22.839Z,94236.72
2023-03-10T03:58:51.768Z,94229.03
2023-03-10T04:01:21.519Z,94229.81
2023-03-10T04:03:48.490Z,94233.28
2023-03-10T04:06:17.321Z,94230.66
2023-03-10T04:08:44.112Z,94232.25
2023-03-10T04:11:13.070Z,94233.28
2023-03-10T04:13:39.771Z,94230.66
2023-03-10T04:16:08.602Z,94231.44
2023-03-10T04:18:37.459Z,94221.69
2023-03-10T04:21:04.268Z,94222.72
2023-03-10T04:23:31.005Z,94221.69
2023-03-10T04:26:01.586Z,94218.47
2023-03-10T04:28:28.229Z,94213.97
2023-03-10T04:30:57.218Z,94214.78
2023-03-10T04:33:26.461Z,94214.78
2023-03-10T04:35:56.606Z,94215.56
2023-03-10T04:38:23.958Z,94210.06
2023-03-10T04:40:59.414Z,94198.59
2023-03-10T04:43:28.883Z,94198.13
2023-03-10T04:45:55.546Z,94206.88
2023-03-10T04:48:25.363Z,94209.50
2023-03-10T04:51:01.456Z,94195.47
2023-03-10T04:53:32.552Z,94202.38
2023-03-10T04:56:00.153Z,94194.69
2023-03-10T04:58:29.997Z,94188.38
2023-03-10T05:01:03.240Z,94188.38
2023-03-10T05:03:34.173Z,94187.56
2023-03-10T05:06:01.084Z,94187.56
2023-03-10T05:08:29.877Z,94173.31
2023-03-10T05:10:59.169Z,94168.28
2023-03-10T05:13:25.850Z,94163.78
2023-03-10T05:15:54.795Z,94165.63
2023-03-10T05:18:24.330Z,94165.63
2023-03-10T05:20:55.074Z,94165.63
2023-03-10T05:23:27.048Z,94162.50
2023-03-10T05:25:53.684Z,94167.25
2023-03-10T05:28:23.841Z,94168.03
2023-03-10T05:30:53.010Z,94165.63
2023-03-10T05:33:19.685Z,94167.25
2023-03-10T05:35:46.409Z,94159.31
2023-03-10T05:38:15.984Z,94162.75
2023-03-10T05:40:44.829Z,94160.91
2023-03-10T05:43:11.753Z,94158.28
2023-03-10T05:45:43.466Z,94160.91
2023-03-10T05:48:12.359Z,94168.03
2023-03-10T05:50:39.676Z,94160.91
2023-03-10T05:53:06.417Z,94158.28
2023-03-10T05:55:33.671Z,94153.00
2023-03-10T05:58:03.559Z,94154.59
2023-03-10T06:00:33.387Z,94154.59
2023-03-10T06:03:04.656Z,94148.50
2023-03-10T06:05:31.483Z,94155.63
2023-03-10T06:08:00.321Z,94153.00
2023-03-10T06:10:30.093Z,94156.19
2023-03-10T06:12:59.211Z,94159.88
2023-03-10T06:15:25.971Z,94158.28
2023-03-10T06:17:57.352Z,94162.50
2023-03-10T06:20:24.102Z,94159.88
2023-03-10T06:22:53.962Z,94162.28
2023-03-10T06:25:23.016Z,94161.47
2023-03-10T06:27:49.688Z,94156.19
2023-03-10T06:30:16.596Z,94163.06
2023-03-10T06:32:43.471Z,94163.91
2023-03-10T06:35:12.865Z,94167.56
2023-03-10T06:37:39.721Z,94164.69
2023-03-10T06:40:12.801Z,94159.41
2023-03-10T06:42:42.943Z,94156.75
2023-03-10T06:45:10.485Z,94158.34
2023-03-10T06:47:39.328Z,94158.34
2023-03-10T06:50:08.789Z,94162.84
2023-03-10T06:52:35.589Z,94160.78
2023-03-10T06:55:02.642Z,94155.50
2023-03-10T06:57:31.625Z,94170.31
2023-03-10T07:00:00.542Z,94170.31
2023-03-10T07:02:27.213Z,94170.53
2023-03-10T07:04:58.610Z,94172.69
2023-03-10T07:07:27.696Z,94173.72
2023-03-10T07:09:56.983Z,94172.69
2023-03-10T07:12:24.542Z,94163.16
2023-03-10T07:14:51.486Z,94160.50
2023-03-10T07:17:18.191Z,94143.41
2023-03-10T07:19:47.047Z,94148.69
2023-03-10T07:22:16.456Z,94151.31
2023-03-10T07:24:43.236Z,94156.38
2023-03-10T07:27:12.195Z,94141.56
2023-03-10T07:29:42.204Z,94140.75
2023-03-10T07:32:15.500Z,94133.63
2023-03-10T07:34:42.213Z,94136.03
2023-03-10T07:37:09.653Z,94144.22
2023-03-10T07:39:36.368Z,94146.59
2023-03-10T07:42:03.035Z,94143.72
2023-03-10T07:44:30.294Z,94135.81
2023-03-10T07:46:59.177Z,94138.44
2023-03-10T07:49:25.839Z,94125.78
2023-03-10T07:51:52.598Z,94121.31
2023-03-10T07:54:19.977Z,94118.41
2023-03-10T07:56:51.088Z,94100.97
2023-03-10T07:59:20.245Z,94097.53
2023-03-10T08:01:47.041Z,94097.28
2023-03-10T08:04:14.445Z,94092.81
2023-03-10T08:06:41.578Z,94086.72
2023-03-10T08:09:10.444Z,94092.00
2023-03-10T08:11:39.516Z,94087.53
2023-03-10T08:14:07.224Z,94082.47
2023-03-10T08:16:33.938Z,94072.44
2023-03-10T08:19:02.741Z,94074.06
2023-03-10T08:21:33.420Z,94064.53
2023-03-10T08:24:06.258Z,94054.50
2023-03-10T08:26:35.506Z,94059.78
2023-03-10T08:29:02.575Z,94046.03
2023-03-10T08:31:29.315Z,94043.47
2023-03-10T08:33:56.952Z,94034.97
2023-03-10T08:36:25.081Z,94043.47
2023-03-10T08:38:56.055Z,94031.88
2023-03-10T08:41:29.934Z,94023.94
2023-03-10T08:43:59.878Z,94024.50
2023-03-10T08:46:31.727Z,94019.75
2023-03-10T08:48:58.587Z,94012.66
2023-03-10T08:51:25.486Z,94009.75
2023-03-10T08:53:54.605Z,94001.31
2023-03-10T08:56:24.454Z,94010.28
2023-03-10T08:58:59.252Z,94011.66
2023-03-10T09:01:29.235Z,94012.44
2023-03-10T09:03:59.451Z,94005.34
2023-03-10T09:06:28.812Z,94006.16
2023-03-10T09:08:55.618Z,93991.31
2023-03-10T09:11:31.639Z,93992.34
2023-03-10T09:13:58.847Z,93984.19
2023-03-10T09:16:28.732Z,93983.38
2023-03-10T09:19:01.657Z,93990.28
2023-03-10T09:21:33.579Z,93991.88
2023-03-10T09:24:03.175Z,93981.31
2023-03-10T09:26:34.601Z,93968.88
2023-03-10T09:29:06.697Z,93976.03
2023-03-10T09:31:34.993Z,93970.25
2023-03-10T09:34:01.792Z,93967.03
2023-03-10T09:36:29.844Z,93968.66
2023-03-10T09:38:57.740Z,93975.53
2023-03-10T09:41:35.755Z,93969.69
2023-03-10T09:44:22.984Z,93967.03
2023-03-10T09:47:22.100Z,93965.44
2023-03-10T09:50:15.926Z,93956.47
2023-03-10T09:52:58.816Z,93960.16
2023-03-10T09:55:42.371Z,93949.59
2023-03-10T09:58:38.595Z,93954.88
2023-03-10T10:01:15.795Z,93950.63
2023-03-10T10:03:53.698Z,93949.59
2023-03-10T10:06:28.960Z,93944.75
2023-03-10T10:09:04.777Z,93937.41
2023-03-10T10:11:33.272Z,93928.13
2023-03-10T10:14:22.330Z,93919.94
2023-03-10T10:17:03.244Z,93907.75
2023-03-10T10:19:29.963Z,93917.28
2023-03-10T10:22:14.797Z,93912.00
2023-03-10T10:24:42.294Z,93918.34
2023-03-10T10:27:11.550Z,93918.34
2023-03-10T10:29:42.448Z,93917.53
2023-03-10T10:32:16.333Z,93918.59
2023-03-10T10:34:44.693Z,93907.75
2023-03-10T10:37:37.305Z,93903.53
2023-03-10T10:40:22.901Z,93905.38
2023-03-10T10:42:56.041Z,93906.97
2023-03-10T10:45:27.452Z,93895.59
2023-03-10T10:47:57.228Z,93904.00
2023-03-10T10:50:38.764Z,93905.38
2023-03-10T10:53:24.392Z,93904.56
2023-03-10T10:56:04.444Z,93899.28
2023-03-10T10:58:35.162Z,93896.63
2023-03-10T11:01:06.324Z,93895.03
2023-03-10T11:03:36.942Z,93882.88
2023-03-10T11:06:18.568Z,93892.41
2023-03-10T11:08:51.388Z,93892.41
2023-03-10T11:11:31.713Z,93892.41
2023-03-10T11:14:03.745Z,93878.63
2023-03-10T11:16:50.644Z,93870.47
2023-03-10T11:19:37.455Z,93849.56
2023-03-10T11:22:15.180Z,93837.94
2023-03-10T11:24:54.118Z,93820.47
2023-03-10T11:27:23.146Z,93832.66
2023-03-10T11:30:25.876Z,93827.38
2023-03-10T11:32:56.085Z,93814.97
2023-03-10T11:35:31.472Z,93811.50
2023-03-10T11:38:06.609Z,93799.34
2023-03-10T11:40:48.825Z,93795.66
2023-03-10T11:43:21.875Z,93799.56
2023-03-10T11:45:55.384Z,93799.34
2023-03-10T11:48:45.421Z,93794.88
2023-03-10T11:51:32.129Z,93785.56
2023-03-10T11:54:01.563Z,93773.94
2023-03-10T11:56:30.415Z,93767.63
2023-03-10T11:59:03.019Z,93762.34
2023-03-10T12:01:42.563Z,93757.84
2023-03-10T12:04:25.764Z,93750.16
2023-03-10T12:07:00.912Z,93749.94
2023-03-10T12:09:33.773Z,93719.25
2023-03-10T12:12:01.281Z,93723.72
2023-03-10T12:14:28.035Z,93724.56
2023-03-10T12:16:59.137Z,93714.75
2023-03-10T12:19:25.768Z,93719.25
2023-03-10T12:22:26.994Z,93720.03
2023-03-10T12:24:56.747Z,93709.47
2023-03-10T12:27:25.629Z,93704.19
2023-03-10T12:29:56.789Z,93711.06
2023-03-10T12:32:39.152Z,93711.34
2023-03-10T12:35:21.026Z,93722.69
2023-03-10T12:37:49.882Z,93709.47
2023-03-10T12:40:48.144Z,93709.47
2023-03-10T12:43:48.830Z,93711.06
2023-03-10T12:46:28.952Z,93705.78
2023-03-10T12:49:41.423Z,93706.31
2023-03-10T12:52:11.029Z,93696.81
2023-03-10T12:55:05.470Z,93675.66
2023-03-10T12:57:51.356Z,93682.53
2023-03-10T13:00:41.557Z,93697.63
2023-03-10T13:03:13.840Z,93664.03
2023-03-10T13:05:55.801Z,93660.59
2023-03-10T13:08:40.449Z,93655.06
2023-03-10T13:11:37.615Z,93648.72
2023-03-10T13:14:18.388Z,93644.75
2023-03-10T13:17:00.746Z,93654.28
2023-03-10T13:19:32.348Z,93662.97
2023-03-10T13:22:00.435Z,93642.66
2023-03-10T13:24:31.690Z,93632.06
2023-03-10T13:27:05.892Z,93646.06
2023-03-10T13:29:34.767Z,93636.56
2023-03-10T13:32:01.555Z,93633.66
2023-03-10T13:34:29.500Z,93626.53
2023-03-10T13:37:10.335Z,93621.22
2023-03-10T13:39:37.229Z,93614.94
2023-03-10T13:42:06.431Z,93604.34
2023-03-10T13:44:52.868Z,93604.34
2023-03-10T13:47:26.309Z,93584.00
2023-03-10T13:49:54.364Z,93563.66
2023-03-10T13:52:23.964Z,93575.00
2023-03-10T13:54:51.717Z,93589.28
2023-03-10T13:57:45.216Z,93575.81
2023-03-10T14:00:17.319Z,93565.25
2023-03-10T14:02:47.139Z,93563.66
2023-03-10T14:05:41.840Z,93559.97
2023-03-10T14:08:21.011Z,93565.78
2023-03-10T14:10:48.008Z,93548.34
2023-03-10T14:13:44.646Z,93540.41
2023-03-10T14:16:13.684Z,93543.59
2023-03-10T14:18:45.545Z,93536.72
2023-03-10T14:21:26.700Z,93542.00
2023-03-10T14:23:53.709Z,93523.50
2023-03-10T14:26:20.480Z,93523.72
2023-03-10T14:28:48.506Z,93527.72
2023-03-10T14:31:22.744Z,93526.91
2023-03-10T14:33:49.974Z,93555.50
2023-03-10T14:36:19.036Z,93540.69
2023-03-10T14:38:46.180Z,93522.19
2023-03-10T14:41:15.758Z,93524.03
2023-03-10T14:43:44.655Z,93543.06
2023-03-10T14:46:13.946Z,93529.31
2023-03-10T14:48:41.909Z,93540.69
2023-03-10T14:51:17.819Z,93528.25
2023-03-10T14:53:49.859Z,93564.50
2023-03-10T14:56:18.916Z,93540.69
2023-03-10T14:58:47.979Z,93541.47
2023-03-10T15:01:14.792Z,93544.13
2023-03-10T15:03:43.627Z,93546.00
2023-03-10T15:06:13.764Z,93558.94
2023-03-10T15:08:44.631Z,93564.50
2023-03-10T15:11:17.416Z,93573.19
2023-03-10T15:13:48.083Z,93589.06
2023-03-10T15:16:14.860Z,93591.72
2023-03-10T15:18:41.606Z,93599.63
2023-03-10T15:21:09.006Z,93628.72
2023-03-10T15:23:36.772Z,93626.88
2023-03-10T15:26:09.745Z,93626.06
2023-03-10T15:28:37.409Z,93610.22
2023-03-10T15:31:06.631Z,93603.34
2023-03-10T15:33:54.905Z,93614.72
2023-03-10T15:36:24.307Z,93606.50
2023-03-10T15:38:52.960Z,93610.22
2023-03-10T15:41:23.746Z,93599.63
2023-03-10T15:43:53.197Z,93605.16
2023-03-10T15:46:22.170Z,93598.03
2023-03-10T15:48:48.836Z,93584.28
2023-03-10T15:51:17.850Z,93574.50
2023-03-10T15:53:47.258Z,93587.97
2023-03-10T15:56:16.039Z,93581.09
2023-03-10T15:58:45.147Z,93586.94
2023-03-10T16:01:16.568Z,93572.13
2023-03-10T16:03:46.520Z,93565.25
2023-03-10T16:06:16.066Z,93555.44
2023-03-10T16:08:44.884Z,93552.56
2023-03-10T16:11:19.497Z,93552.56
2023-03-10T16:13:49.766Z,93547.78
2023-03-10T16:16:23.485Z,93548.56
2023-03-10T16:18:55.010Z,93541.47
2023-03-10T16:21:22.149Z,93535.34
2023-03-10T16:23:48.849Z,93532.72
2023-03-10T16:26:19.313Z,93529.28
2023-03-10T16:28:53.234Z,93521.38
2023-03-10T16:31:21.723Z,93519.50
2023-03-10T16:33:51.069Z,93516.06
2023-03-10T16:36:19.713Z,93509.97
2023-03-10T16:38:46.397Z,93509.19
2023-03-10T16:41:13.368Z,93519.50
2023-03-10T16:43:42.431Z,93508.16
2023-03-10T16:46:11.441Z,93510.78
2023-03-10T16:48:42.357Z,93516.84
2023-03-10T16:51:19.869Z,93516.06
2023-03-10T16:53:46.947Z,93519.78
2023-03-10T16:56:13.769Z,93521.38
2023-03-10T16:58:42.672Z,93524.78
2023-03-10T17:01:09.397Z,93537.22
2023-03-10T17:03:39.956Z,93536.16
2023-03-10T17:06:10.864Z,93536.16
2023-03-10T17:08:38.408Z,93538.81
2023-03-10T17:11:05.499Z,93538.00
2023-03-10T17:13:32.458Z,93536.16
2023-03-10T17:16:01.518Z,93528.25
2023-03-10T17:18:28.142Z,93528.25
2023-03-10T17:20:57.052Z,93528.25
2023-03-10T17:23:23.820Z,93534.31
2023-03-10T17:25:52.019Z,93529.03
2023-03-10T17:28:18.742Z,93531.94
2023-03-10T17:30:45.612Z,93532.72
2023-03-10T17:33:12.254Z,93533.53
2023-03-10T17:35:39.027Z,93533.53
2023-03-10T17:38:07.848Z,93517.66
2023-03-10T17:40:34.824Z,93518.44
2023-03-10T17:43:13.114Z,93512.91
2023-03-10T17:46:02.883Z,93516.06
2023-03-10T17:48:29.645Z,93507.09
2023-03-10T17:50:57.193Z,93509.75
2023-03-10T17:53:24.778Z,93515.03
2023-03-10T17:55:51.622Z,93521.38
2023-03-10T17:58:18.454Z,93521.38
2023-03-10T18:00:47.401Z,93515.25
2023-03-10T18:03:15.013Z,93524.00
2023-03-10T18:05:42.733Z,93522.16
2023-03-10T18:08:09.962Z,93517.66
2023-03-10T18:10:38.117Z,93497.56
2023-03-10T18:13:10.150Z,93489.66
2023-03-10T18:15:37.045Z,93479.06
2023-03-10T18:18:03.879Z,93468.50
2023-03-10T18:20:32.992Z,93468.50
2023-03-10T18:23:01.989Z,93476.44
2023-03-10T18:25:28.770Z,93473.78
2023-03-10T18:27:58.295Z,93473.78
2023-03-10T18:30:26.651Z,93470.09
2023-03-10T18:32:55.877Z,93470.09
2023-03-10T18:35:22.996Z,93464.00
2023-03-10T18:37:51.998Z,93471.38
2023-03-10T18:40:21.068Z,93472.72
2023-03-10T18:42:48.689Z,93463.22
2023-03-10T18:45:15.491Z,93463.22
2023-03-10T18:47:42.663Z,93457.94
2023-03-10T18:50:10.382Z,93448.94
2023-03-10T18:52:39.415Z,93454.22
2023-03-10T18:55:07.444Z,93448.94
2023-03-10T18:57:36.335Z,93451.81
2023-03-10T19:00:14.177Z,93447.34
2023-03-10T19:02:45.111Z,93426.22
2023-03-10T19:05:18.161Z,93425.41
2023-03-10T19:07:48.293Z,93439.41
2023-03-10T19:10:16.521Z,93426.22
2023-03-10T19:12:43.323Z,93413.78
2023-03-10T19:15:15.911Z,93410.34
2023-03-10T19:17:42.770Z,93410.34
2023-03-10T19:20:11.638Z,93405.06
2023-03-10T19:22:38.981Z,93405.06
2023-03-10T19:25:08.488Z,93398.97
2023-03-10T19:27:39.807Z,93402.16
2023-03-10T19:30:14.235Z,93371.75
2023-03-10T19:32:41.003Z,93371.75
2023-03-10T19:35:09.005Z,93383.91
2023-03-10T19:37:36.479Z,93378.63
2023-03-10T19:40:05.994Z,93380.22
2023-03-10T19:42:38.905Z,93378.63
2023-03-10T19:45:08.237Z,93376.00
2023-03-10T19:47:34.941Z,93378.63
2023-03-10T19:50:03.774Z,93375.19
2023-03-10T19:52:32.847Z,93379.69
2023-03-10T19:54:59.590Z,93390.25
2023-03-10T19:57:28.442Z,93411.13
2023-03-10T19:59:58.293Z,93422.50
2023-03-10T20:02:25.993Z,93420.91
2023-03-10T20:04:54.788Z,93427.00
2023-03-10T20:07:23.642Z,93420.91
2023-03-10T20:09:53.364Z,93401.38
2023-03-10T20:12:20.182Z,93392.91
2023-03-10T20:14:46.807Z,93387.63
2023-03-10T20:17:17.412Z,93386.56
2023-03-10T20:19:47.665Z,93372.53
2023-03-10T20:22:18.494Z,93379.69
2023-03-10T20:24:45.890Z,93383.09
2023-03-10T20:27:15.446Z,93383.91
2023-03-10T20:29:44.652Z,93384.69
2023-03-10T20:32:11.562Z,93399.78
2023-03-10T20:34:41.294Z,93368.06
2023-03-10T20:37:08.080Z,93323.13
2023-03-10T20:39:34.844Z,93294.06
2023-03-10T20:42:05.197Z,93298.53
2023-03-10T20:44:34.329Z,93308.84
2023-03-10T20:47:01.357Z,93302.75
2023-03-10T20:49:28.104Z,93303.03
2023-03-10T20:51:55.412Z,93294.06
2023-03-10T20:54:25.087Z,93271.31
2023-03-10T20:56:51.926Z,93266.03
2023-03-10T20:59:20.867Z,93260.75
2023-03-10T21:01:49.895Z,93264.41
2023-03-10T21:04:16.698Z,93263.13
2023-03-10T21:06:48.793Z,93257.06
2023-03-10T21:09:18.420Z,93267.63
2023-03-10T21:11:47.616Z,93271.31
2023-03-10T21:14:16.682Z,93266.81
2023-03-10T21:16:45.730Z,93276.59
2023-03-10T21:19:13.572Z,93274.75
2023-03-10T21:21:40.455Z,93271.31
2023-03-10T21:24:09.588Z,93271.31
2023-03-10T21:26:36.424Z,93281.91
2023-03-10T21:29:04.001Z,93281.91
2023-03-10T21:31:30.889Z,93289.81
2023-03-10T21:33:57.764Z,93283.47
2023-03-10T21:36:26.565Z,93285.56
2023-03-10T21:38:55.527Z,93267.88
2023-03-10T21:41:28.840Z,93287.44
2023-03-10T21:43:56.315Z,93290.84
2023-03-10T21:46:23.228Z,93290.84
2023-03-10T21:48:55.720Z,93301.41
2023-03-10T21:51:23.394Z,93298.78
2023-03-10T21:53:53.780Z,93294.56
2023-03-10T21:56:22.580Z,93314.63
2023-03-10T21:58:49.468Z,93310.97
2023-03-10T22:01:17.106Z,93304.06
2023-03-10T22:03:45.950Z,93305.13
2023-03-10T22:06:13.638Z,93319.16
2023-03-10T22:08:42.654Z,93317.28
2023-03-10T22:11:09.476Z,93291.66
2023-03-10T22:13:36.681Z,93259.13
2023-03-10T22:16:03.980Z,93213.69
2023-03-10T22:18:30.777Z,93230.06
2023-03-10T22:20:59.568Z,93220.53
2023-03-10T22:23:30.994Z,93243.28
2023-03-10T22:25:59.970Z,93231.13
2023-03-10T22:28:29.342Z,93227.69
2023-03-10T22:30:59.186Z,93219.78
2023-03-10T22:33:28.551Z,93220.53
2023-03-10T22:35:57.508Z,93219.78
2023-03-10T22:38:26.407Z,93217.91
2023-03-10T22:40:55.340Z,93224.25
2023-03-10T22:43:22.080Z,93221.59
2023-03-10T22:45:48.813Z,93208.38
2023-03-10T22:48:17.601Z,93220.53
2023-03-10T22:50:46.879Z,93212.09
2023-03-10T22:53:19.100Z,93203.91
2023-03-10T22:55:47.914Z,93202.31
2023-03-10T22:58:16.425Z,93203.09
2023-03-10T23:00:46.490Z,93198.88
2023-03-10T23:03:14.085Z,93198.88
2023-03-10T23:05:40.946Z,93190.16
2023-03-10T23:08:07.664Z,93187.25
2023-03-10T23:10:35.786Z,93185.66
2023-03-10T23:13:07.931Z,93175.91
2023-03-10T23:15:37.780Z,93181.19
2023-03-10T23:18:04.835Z,93164.00
2023-03-10T23:20:53.061Z,93155.00
2023-03-10T23:23:21.872Z,93161.88
2023-03-10T23:25:51.860Z,93181.97
2023-03-10T23:28:22.189Z,93184.06
2023-03-10T23:30:49.015Z,93169.81
2023-03-10T23:33:19.375Z,93178.78
2023-03-10T23:35:53.935Z,93169.81
2023-03-10T23:38:21.801Z,93163.75
2023-03-10T23:40:49.749Z,93155.53
2023-03-10T23:43:16.810Z,93157.66
2023-03-10T23:45:43.582Z,93153.16
2023-03-10T23:48:16.805Z,93155.00
2023-03-10T23:50:44.550Z,93169.28
2023-03-10T23:53:12.211Z,93177.22
2023-03-10T23:55:40.740Z,93210.50
2023-03-10T23:58:07.784Z,93205.22
